Time;durP1;ratioP1;P1;durP2;ratioP2;P2;SDS_P1;SDS_P2;PMS_P1;PMS_P2;Temp;Humidity;BMP_temperature;BMP_pressure;BME280_temperature;BME280_humidity;BME280_pressure;Samples;Min_cycle;Max_cycle;Signal;HPM_P1;HPM_P2
2022/10/13 00:00:10;;;;;;;;;5.75;5.00;;;;;;;;5082193;27;51455;-48
2022/10/13 00:02:54;;;;;;;;;6.75;5.75;;;;;;;;5081866;27;51050;-48
2022/10/13 00:05:39;;;;;;;;;10.00;6.00;;;;;;;;5066640;27;51110;-46
2022/10/13 00:08:25;;;;;;;;;4.25;4.00;;;;;;;;5095723;27;51510;-50
2022/10/13 00:11:11;;;;;;;;;4.75;4.75;;;;;;;;5102495;27;51094;-48
2022/10/13 00:14:00;;;;;;;;;5.00;3.75;;;;;;;;5086531;27;51546;-47
2022/10/13 00:16:44;;;;;;;;;8.25;5.00;;;;;;;;5087005;27;51231;-50
2022/10/13 00:19:30;;;;;;;;;4.75;4.75;;;;;;;;5101766;27;51456;-48
2022/10/13 00:22:14;;;;;;;;;6.00;5.00;;;;;;;;5101984;27;51111;-46
2022/10/13 00:24:59;;;;;;;;;5.25;4.50;;;;;;;;5101746;27;51016;-47
2022/10/13 00:27:44;;;;;;;;;7.75;5.00;;;;;;;;5101709;27;51161;-47
2022/10/13 00:30:28;;;;;;;;;9.25;4.00;;;;;;;;5102513;27;51183;-49
2022/10/13 00:33:13;;;;;;;;;7.25;4.00;;;;;;;;5077683;27;51434;-47
2022/10/13 00:35:57;;;;;;;;;7.50;5.00;;;;;;;;5101355;27;51520;-48
2022/10/13 00:38:42;;;;;;;;;4.75;3.00;;;;;;;;5082534;27;51074;-48
2022/10/13 00:41:26;;;;;;;;;4.00;4.00;;;;;;;;5093518;27;51084;-45
2022/10/13 00:44:29;;;;;;;;;6.75;4.50;;;;;;;;5101569;27;51436;-47
2022/10/13 00:47:13;;;;;;;;;6.50;3.75;;;;;;;;5101846;27;51116;-47
2022/10/13 00:49:58;;;;;;;;;6.00;4.00;;;;;;;;5101957;27;51112;-47
2022/10/13 00:52:44;;;;;;;;;6.00;4.00;;;;;;;;5101273;27;51153;-50
2022/10/13 00:55:33;;;;;;;;;4.00;3.50;;;;;;;;5101651;27;51149;-48
2022/10/13 00:58:18;;;;;;;;;7.00;4.25;;;;;;;;5101526;27;51535;-46
2022/10/13 01:01:04;;;;;;;;;6.75;5.00;;;;;;;;5101372;27;51090;-46
2022/10/13 01:03:48;;;;;;;;;5.50;3.50;;;;;;;;5101331;27;51155;-49
2022/10/13 01:06:33;;;;;;;;;8.50;7.25;;;;;;;;5101179;27;51093;-49
2022/10/13 01:09:17;;;;;;;;;5.50;5.50;;;;;;;;5100919;27;51374;-45
2022/10/13 01:12:10;;;;;;;;;4.00;4.00;;;;;;;;5101176;27;51099;-47
2022/10/13 01:14:54;;;;;;;;;5.75;4.25;;;;;;;;5100890;27;51331;-45
2022/10/13 01:17:57;;;;;;;;;5.75;4.00;;;;;;;;5101065;27;51148;-49
2022/10/13 01:20:47;;;;;;;;;4.00;4.00;;;;;;;;5101616;27;51040;-46
2022/10/13 01:23:51;;;;;;;;;4.00;3.25;;;;;;;;5093789;27;51192;-47
2022/10/13 01:26:51;;;;;;;;;4.25;3.00;;;;;;;;5079991;27;51210;-50
2022/10/13 01:29:53;;;;;;;;;3.50;3.50;;;;;;;;5097664;27;51128;-49
2022/10/13 01:32:55;;;;;;;;;7.25;3.75;;;;;;;;5101065;27;51158;-45
2022/10/13 01:35:58;;;;;;;;;6.50;4.50;;;;;;;;5100264;27;51346;-45
2022/10/13 01:38:52;;;;;;;;;5.00;3.50;;;;;;;;5100658;27;51151;-46
2022/10/13 01:41:37;;;;;;;;;6.00;4.50;;;;;;;;5091144;27;51564;-50
2022/10/13 01:44:37;;;;;;;;;4.00;4.00;;;;;;;;5079641;27;51015;-49
2022/10/13 01:47:21;;;;;;;;;5.25;3.25;;;;;;;;5098830;27;51027;-48
2022/10/13 01:50:06;;;;;;;;;5.00;3.50;;;;;;;;5100342;27;51055;-48
2022/10/13 01:52:51;;;;;;;;;4.00;4.00;;;;;;;;5100438;27;51124;-47
2022/10/13 01:55:35;;;;;;;;;5.50;4.00;;;;;;;;5097765;27;51214;-47
2022/10/13 01:58:20;;;;;;;;;5.25;2.50;;;;;;;;5101042;27;51078;-46
2022/10/13 02:01:10;;;;;;;;;3.50;3.00;;;;;;;;5100489;27;51358;-47
2022/10/13 02:04:13;;;;;;;;;3.25;3.25;;;;;;;;5100171;27;51083;-47
2022/10/13 02:07:02;;;;;;;;;4.00;4.00;;;;;;;;5099827;27;51095;-47
2022/10/13 02:09:55;;;;;;;;;5.00;3.75;;;;;;;;5100188;27;51183;-47
2022/10/13 02:12:46;;;;;;;;;5.00;3.50;;;;;;;;5100801;27;51122;-51
2022/10/13 02:15:39;;;;;;;;;5.00;5.00;;;;;;;;5086199;27;51442;-49
2022/10/13 02:18:27;;;;;;;;;6.00;3.25;;;;;;;;5100293;27;51090;-48
2022/10/13 02:21:11;;;;;;;;;6.25;4.00;;;;;;;;5089827;27;51151;-45
2022/10/13 02:23:56;;;;;;;;;5.25;3.50;;;;;;;;5100399;27;51081;-46
2022/10/13 02:26:41;;;;;;;;;9.00;4.00;;;;;;;;5099547;27;51184;-47
2022/10/13 02:29:25;;;;;;;;;4.50;4.50;;;;;;;;5100129;27;51130;-49
2022/10/13 02:32:10;;;;;;;;;4.50;2.25;;;;;;;;5100477;27;50990;-45
2022/10/13 02:34:54;;;;;;;;;4.75;3.00;;;;;;;;5091746;27;51085;-49
2022/10/13 02:37:38;;;;;;;;;4.00;4.00;;;;;;;;5079980;27;51096;-46
2022/10/13 02:40:23;;;;;;;;;6.25;3.00;;;;;;;;5079619;27;51173;-48
2022/10/13 02:43:07;;;;;;;;;8.50;6.25;;;;;;;;5079665;27;51415;-47
2022/10/13 02:45:51;;;;;;;;;4.50;4.50;;;;;;;;5079564;27;51126;-44
2022/10/13 02:48:36;;;;;;;;;6.75;3.50;;;;;;;;5079893;27;51130;-49
2022/10/13 02:51:20;;;;;;;;;5.50;5.50;;;;;;;;5079852;27;51548;-53
2022/10/13 02:54:05;;;;;;;;;4.25;3.00;;;;;;;;5079586;27;51035;-49
2022/10/13 02:56:50;;;;;;;;;7.50;4.50;;;;;;;;5079648;27;51216;-46
2022/10/13 02:59:34;;;;;;;;;11.25;4.50;;;;;;;;5079765;27;51111;-49
2022/10/13 03:02:18;;;;;;;;;3.50;3.50;;;;;;;;5080385;27;51156;-49
2022/10/13 03:05:03;;;;;;;;;5.75;4.50;;;;;;;;5083590;27;51549;-48
2022/10/13 03:07:48;;;;;;;;;4.50;4.00;;;;;;;;5097757;27;51183;-46
2022/10/13 03:10:33;;;;;;;;;5.50;4.25;;;;;;;;5103825;27;50985;-46
2022/10/13 03:13:17;;;;;;;;;6.50;4.75;;;;;;;;5104423;27;51185;-47
2022/10/13 03:16:02;;;;;;;;;4.75;4.75;;;;;;;;5103748;27;51249;-48
2022/10/13 03:18:46;;;;;;;;;5.25;5.25;;;;;;;;5104110;27;51231;-47
2022/10/13 03:21:30;;;;;;;;;7.50;5.50;;;;;;;;5103904;27;51500;-48
2022/10/13 03:24:15;;;;;;;;;6.50;4.25;;;;;;;;5090899;27;51460;-47
2022/10/13 03:26:59;;;;;;;;;9.50;8.75;;;;;;;;5095461;27;51093;-47
2022/10/13 03:29:43;;;;;;;;;6.00;6.00;;;;;;;;5103625;27;51158;-48
2022/10/13 03:32:31;;;;;;;;;8.50;5.00;;;;;;;;5103278;27;51491;-50
2022/10/13 03:35:15;;;;;;;;;6.75;5.00;;;;;;;;5103600;27;51116;-48
2022/10/13 03:38:00;;;;;;;;;8.75;7.25;;;;;;;;5103487;27;51154;-48
2022/10/13 03:40:44;;;;;;;;;5.75;4.75;;;;;;;;5102479;27;51342;-48
2022/10/13 03:43:29;;;;;;;;;7.50;4.00;;;;;;;;5103524;27;51013;-48
2022/10/13 03:46:15;;;;;;;;;11.00;8.25;;;;;;;;5103093;27;51563;-49
2022/10/13 03:48:59;;;;;;;;;8.50;8.25;;;;;;;;5103160;27;51061;-47
2022/10/13 03:51:44;;;;;;;;;8.75;8.00;;;;;;;;5103378;27;51125;-46
2022/10/13 03:54:28;;;;;;;;;7.00;6.00;;;;;;;;5102696;27;51203;-46
2022/10/13 03:57:12;;;;;;;;;7.75;6.50;;;;;;;;5102862;27;51120;-45
2022/10/13 03:59:57;;;;;;;;;5.00;5.00;;;;;;;;5102915;27;50971;-47
2022/10/13 04:02:41;;;;;;;;;6.00;6.00;;;;;;;;5103173;27;51147;-49
2022/10/13 04:05:25;;;;;;;;;5.25;4.25;;;;;;;;5102730;27;51347;-45
2022/10/13 04:08:11;;;;;;;;;10.00;7.50;;;;;;;;5103044;27;51041;-46
2022/10/13 04:11:14;;;;;;;;;7.75;6.25;;;;;;;;5102921;27;50982;-51
2022/10/13 04:13:58;;;;;;;;;6.00;6.00;;;;;;;;5099481;27;51814;-46
2022/10/13 04:16:43;;;;;;;;;4.50;4.50;;;;;;;;5102802;27;51183;-48
2022/10/13 04:19:27;;;;;;;;;7.50;5.50;;;;;;;;5086962;27;51282;-45
2022/10/13 04:22:11;;;;;;;;;8.75;6.50;;;;;;;;5086914;27;51355;-51
2022/10/13 04:24:56;;;;;;;;;5.25;5.25;;;;;;;;5082011;27;51105;-47
2022/10/13 04:27:40;;;;;;;;;4.25;3.75;;;;;;;;5097491;27;51090;-47
2022/10/13 04:30:25;;;;;;;;;5.00;5.00;;;;;;;;5101850;27;51563;-45
2022/10/13 04:33:09;;;;;;;;;11.50;6.50;;;;;;;;5102347;27;51083;-47
2022/10/13 04:35:54;;;;;;;;;10.50;8.25;;;;;;;;5102431;27;51291;-46
2022/10/13 04:38:38;;;;;;;;;12.00;9.00;;;;;;;;5102050;27;51171;-49
2022/10/13 04:41:24;;;;;;;;;10.50;7.50;;;;;;;;5102144;27;51025;-46
2022/10/13 04:44:08;;;;;;;;;9.50;7.00;;;;;;;;5101946;27;51148;-49
2022/10/13 04:46:53;;;;;;;;;7.00;4.50;;;;;;;;5102214;27;51436;-47
2022/10/13 04:49:37;;;;;;;;;7.00;5.25;;;;;;;;5101638;27;51135;-45
2022/10/13 04:52:22;;;;;;;;;6.25;6.25;;;;;;;;5102247;27;51186;-48
2022/10/13 04:55:07;;;;;;;;;4.25;3.00;;;;;;;;5101619;27;51291;-45
2022/10/13 04:57:51;;;;;;;;;9.25;5.25;;;;;;;;5101871;27;51047;-46
2022/10/13 05:00:36;;;;;;;;;7.75;6.50;;;;;;;;5098093;27;51297;-48
2022/10/13 05:03:20;;;;;;;;;7.75;6.00;;;;;;;;5081372;27;51118;-47
2022/10/13 05:06:05;;;;;;;;;9.50;7.75;;;;;;;;5081331;27;51188;-46
2022/10/13 05:08:49;;;;;;;;;8.00;8.00;;;;;;;;5080988;27;51066;-51
2022/10/13 05:11:34;;;;;;;;;12.00;8.00;;;;;;;;5097345;27;51909;-48
2022/10/13 05:14:18;;;;;;;;;9.25;7.50;;;;;;;;5101434;27;51097;-46
2022/10/13 05:17:03;;;;;;;;;15.50;14.00;;;;;;;;5101256;27;51143;-46
2022/10/13 05:19:48;;;;;;;;;16.50;12.50;;;;;;;;5101276;27;51338;-45
2022/10/13 05:22:32;;;;;;;;;16.50;14.50;;;;;;;;5101374;27;51693;-47
2022/10/13 05:25:17;;;;;;;;;18.25;12.75;;;;;;;;5078533;27;51184;-48
2022/10/13 05:28:01;;;;;;;;;14.00;14.00;;;;;;;;5079964;27;51062;-51
2022/10/13 05:30:45;;;;;;;;;20.00;17.75;;;;;;;;5081051;27;51054;-47
2022/10/13 05:33:30;;;;;;;;;23.75;19.75;;;;;;;;5096536;27;51445;-46
2022/10/13 05:36:16;;;;;;;;;22.25;18.00;;;;;;;;5080763;27;51435;-48
2022/10/13 05:39:05;;;;;;;;;24.50;20.50;;;;;;;;5079871;27;51087;-49
2022/10/13 05:41:49;;;;;;;;;24.25;22.00;;;;;;;;5080763;27;51285;-48
2022/10/13 05:44:35;;;;;;;;;25.50;21.00;;;;;;;;5080093;27;51164;-48
2022/10/13 05:47:21;;;;;;;;;24.25;22.00;;;;;;;;5079674;27;51359;-45
2022/10/13 05:50:06;;;;;;;;;37.00;27.25;;;;;;;;5079892;27;51138;-48
2022/10/13 05:52:50;;;;;;;;;27.50;21.25;;;;;;;;5079722;27;51118;-48
2022/10/13 05:55:35;;;;;;;;;29.25;25.75;;;;;;;;5079956;27;51169;-49
2022/10/13 05:58:20;;;;;;;;;32.25;28.50;;;;;;;;5079806;27;51129;-48
2022/10/13 06:01:09;;;;;;;;;36.00;31.25;;;;;;;;5079652;27;51116;-50
2022/10/13 06:03:57;;;;;;;;;31.50;28.50;;;;;;;;5099933;27;51175;-48
2022/10/13 06:06:41;;;;;;;;;29.75;26.25;;;;;;;;5100176;27;51139;-48
2022/10/13 06:09:28;;;;;;;;;38.25;33.00;;;;;;;;5099927;27;51163;-48
2022/10/13 06:12:13;;;;;;;;;45.00;34.75;;;;;;;;5099870;27;51177;-47
2022/10/13 06:14:58;;;;;;;;;34.75;30.50;;;;;;;;5100086;27;51044;-46
2022/10/13 06:17:42;;;;;;;;;39.00;32.50;;;;;;;;5099655;27;51132;-48
2022/10/13 06:20:27;;;;;;;;;27.50;27.50;;;;;;;;5093367;27;51073;-43
2022/10/13 06:23:11;;;;;;;;;37.25;30.50;;;;;;;;5086604;27;51174;-43
2022/10/13 06:25:55;;;;;;;;;35.75;30.00;;;;;;;;5079109;27;51673;-43
2022/10/13 06:28:40;;;;;;;;;37.75;30.75;;;;;;;;5099769;27;51509;-42
2022/10/13 06:31:25;;;;;;;;;38.50;32.00;;;;;;;;5095686;27;51073;-42
2022/10/13 06:34:09;;;;;;;;;32.00;28.25;;;;;;;;5080924;27;51541;-42
2022/10/13 06:36:54;;;;;;;;;36.00;30.50;;;;;;;;5084216;27;51334;-43
2022/10/13 06:39:39;;;;;;;;;39.00;32.25;;;;;;;;5078915;27;51087;-44
2022/10/13 06:42:23;;;;;;;;;39.75;31.25;;;;;;;;5078808;27;51122;-43
2022/10/13 06:45:07;;;;;;;;;39.25;30.00;;;;;;;;5096739;27;51159;-43
2022/10/13 06:47:53;;;;;;;;;51.75;40.50;;;;;;;;5089198;27;51198;-42
2022/10/13 06:50:37;;;;;;;;;52.50;41.75;;;;;;;;5079556;27;51344;-44
2022/10/13 06:53:21;;;;;;;;;46.25;36.25;;;;;;;;5089128;27;51044;-43
2022/10/13 06:56:07;;;;;;;;;42.50;34.00;;;;;;;;5080597;27;51383;-42
2022/10/13 06:58:51;;;;;;;;;49.50;38.00;;;;;;;;5079119;28;51037;-42
2022/10/13 07:01:36;;;;;;;;;43.75;36.00;;;;;;;;5079174;27;51114;-43
2022/10/13 07:04:21;;;;;;;;;34.50;32.00;;;;;;;;5079573;27;51665;-43
2022/10/13 07:07:05;;;;;;;;;43.00;33.00;;;;;;;;5096449;27;51104;-41
2022/10/13 07:09:50;;;;;;;;;26.50;23.50;;;;;;;;5096671;27;51160;-41
2022/10/13 07:12:34;;;;;;;;;27.00;22.50;;;;;;;;5099400;27;51247;-44
2022/10/13 07:15:19;;;;;;;;;28.50;23.75;;;;;;;;5099303;27;51551;-44
2022/10/13 07:18:03;;;;;;;;;32.00;29.75;;;;;;;;5077476;27;51011;-42
2022/10/13 07:20:48;;;;;;;;;31.50;26.25;;;;;;;;5099048;27;51018;-45
2022/10/13 07:23:32;;;;;;;;;33.00;28.50;;;;;;;;5091874;27;51213;-42
2022/10/13 07:26:17;;;;;;;;;27.75;25.50;;;;;;;;5087571;27;51238;-43
2022/10/13 07:29:02;;;;;;;;;29.25;24.75;;;;;;;;5095875;27;51357;-42
2022/10/13 07:31:46;;;;;;;;;25.25;22.00;;;;;;;;5080370;27;51270;-45
2022/10/13 07:34:30;;;;;;;;;24.00;24.00;;;;;;;;5079363;27;51134;-43
2022/10/13 07:37:15;;;;;;;;;24.75;22.00;;;;;;;;5078194;27;51134;-43
2022/10/13 07:40:00;;;;;;;;;29.75;25.75;;;;;;;;5078581;27;51176;-43
2022/10/13 07:42:44;;;;;;;;;25.75;22.25;;;;;;;;5080261;27;51186;-45
2022/10/13 07:45:28;;;;;;;;;22.75;19.00;;;;;;;;5083801;27;51131;-43
2022/10/13 07:48:13;;;;;;;;;21.25;17.25;;;;;;;;5082116;27;51443;-43
2022/10/13 07:50:57;;;;;;;;;16.75;14.25;;;;;;;;5085543;27;51140;-43
2022/10/13 07:53:42;;;;;;;;;19.75;15.00;;;;;;;;5084774;27;51449;-44
2022/10/13 07:56:26;;;;;;;;;13.50;11.00;;;;;;;;5080974;27;51200;-42
2022/10/13 07:59:11;;;;;;;;;9.25;7.75;;;;;;;;5085762;27;51067;-44
2022/10/13 08:01:56;;;;;;;;;15.00;11.00;;;;;;;;5086816;27;51052;-44
2022/10/13 08:04:40;;;;;;;;;11.00;9.50;;;;;;;;5101197;27;51110;-43
2022/10/13 08:07:24;;;;;;;;;11.75;9.75;;;;;;;;5101970;27;51219;-43
2022/10/13 08:10:09;;;;;;;;;9.50;7.50;;;;;;;;5091759;27;51176;-43
2022/10/13 08:12:53;;;;;;;;;10.00;8.00;;;;;;;;5091697;27;51573;-43
2022/10/13 08:15:41;;;;;;;;;9.25;8.00;;;;;;;;5083334;27;51149;-43
2022/10/13 08:18:25;;;;;;;;;8.25;7.00;;;;;;;;5081344;27;51118;-43
2022/10/13 08:21:16;;;;;;;;;11.25;9.75;;;;;;;;5081685;27;51033;-42
2022/10/13 08:24:00;;;;;;;;;20.00;12.50;;;;;;;;5099254;27;51233;-45
2022/10/13 08:26:45;;;;;;;;;11.25;11.25;;;;;;;;5079804;27;51160;-42
2022/10/13 08:29:30;;;;;;;;;12.00;9.00;;;;;;;;5096745;27;51104;-44
2022/10/13 08:32:14;;;;;;;;;11.75;9.00;;;;;;;;5101301;27;51142;-43
2022/10/13 08:34:59;;;;;;;;;11.00;9.25;;;;;;;;5102207;27;51098;-44
2022/10/13 08:37:43;;;;;;;;;7.00;6.50;;;;;;;;5101425;27;51385;-45
2022/10/13 08:40:27;;;;;;;;;10.00;9.00;;;;;;;;5090604;27;51093;-42
2022/10/13 08:43:14;;;;;;;;;3.00;3.00;;;;;;;;5087493;27;51418;-44
2022/10/13 08:45:59;;;;;;;;;12.75;8.75;;;;;;;;5088609;27;51127;-42
2022/10/13 08:48:43;;;;;;;;;11.50;8.75;;;;;;;;5080933;27;51409;-43
2022/10/13 08:51:29;;;;;;;;;10.00;8.50;;;;;;;;5095280;27;51160;-43
2022/10/13 08:54:14;;;;;;;;;10.75;7.75;;;;;;;;5081081;27;51191;-43
2022/10/13 08:56:59;;;;;;;;;7.75;7.25;;;;;;;;5086729;27;51320;-43
2022/10/13 08:59:43;;;;;;;;;10.00;10.00;;;;;;;;5095249;27;51120;-43
2022/10/13 09:02:30;;;;;;;;;11.50;9.25;;;;;;;;5083624;27;51554;-43
2022/10/13 09:05:24;;;;;;;;;13.00;11.75;;;;;;;;5078587;27;51176;-43
2022/10/13 09:08:15;;;;;;;;;13.25;12.00;;;;;;;;5091105;27;51462;-43
2022/10/13 09:10:59;;;;;;;;;29.75;26.50;;;;;;;;5101453;27;51157;-44
2022/10/13 09:13:44;;;;;;;;;11.75;10.75;;;;;;;;5094468;27;51600;-42
2022/10/13 09:16:31;;;;;;;;;10.50;10.00;;;;;;;;5092390;27;51221;-42
2022/10/13 09:19:30;;;;;;;;;14.00;14.00;;;;;;;;5101371;27;51178;-44
2022/10/13 09:22:21;;;;;;;;;14.00;10.00;;;;;;;;5088038;27;51624;-42
2022/10/13 09:25:05;;;;;;;;;12.25;9.75;;;;;;;;5081489;27;51122;-43
2022/10/13 09:27:51;;;;;;;;;12.00;9.50;;;;;;;;5088246;27;51239;-43
2022/10/13 09:30:41;;;;;;;;;12.25;11.00;;;;;;;;5093402;27;51093;-43
2022/10/13 09:33:25;;;;;;;;;16.25;16.00;;;;;;;;5101131;27;51530;-43
2022/10/13 09:36:11;;;;;;;;;13.25;12.00;;;;;;;;5101233;27;51139;-42
2022/10/13 09:39:11;;;;;;;;;12.00;9.25;;;;;;;;5095351;27;51405;-42
2022/10/13 09:42:18;;;;;;;;;15.25;12.25;;;;;;;;5079376;27;52425;-42
2022/10/13 09:45:16;;;;;;;;;14.75;13.00;;;;;;;;5086024;27;51233;-45
2022/10/13 09:48:04;;;;;;;;;11.75;10.75;;;;;;;;5088384;27;51175;-43
2022/10/13 09:50:51;;;;;;;;;15.50;12.00;;;;;;;;5080169;27;51058;-42
2022/10/13 09:53:39;;;;;;;;;10.50;8.50;;;;;;;;5088174;27;51245;-42
2022/10/13 09:56:37;;;;;;;;;7.25;7.00;;;;;;;;5080105;27;51087;-42
2022/10/13 09:59:27;;;;;;;;;12.50;9.00;;;;;;;;5080282;27;51711;-43
2022/10/13 10:02:15;;;;;;;;;12.50;8.25;;;;;;;;5084977;27;51131;-42
2022/10/13 10:05:04;;;;;;;;;9.50;9.50;;;;;;;;5100484;27;51145;-43
2022/10/13 10:07:48;;;;;;;;;6.75;5.75;;;;;;;;5092725;27;51214;-49
2022/10/13 10:10:34;;;;;;;;;13.00;10.00;;;;;;;;5099732;27;51601;-43
2022/10/13 10:13:18;;;;;;;;;4.25;4.25;;;;;;;;5090366;27;51195;-46
2022/10/13 10:16:29;;;;;;;;;8.75;7.75;;;;;;;;5097324;27;51111;-44
2022/10/13 10:19:19;;;;;;;;;24.25;20.00;;;;;;;;5091375;27;51741;-43
2022/10/13 10:22:09;;;;;;;;;20.75;19.75;;;;;;;;5085423;27;51190;-43
2022/10/13 10:25:03;;;;;;;;;26.25;21.50;;;;;;;;5092351;27;51080;-43
2022/10/13 10:27:53;;;;;;;;;17.25;16.00;;;;;;;;5081460;27;51139;-44
2022/10/13 10:30:42;;;;;;;;;22.25;16.25;;;;;;;;5093928;27;51373;-46
2022/10/13 10:33:38;;;;;;;;;17.00;15.75;;;;;;;;5098880;27;51136;-45
2022/10/13 10:36:33;;;;;;;;;16.75;16.00;;;;;;;;5081716;27;51429;-45
2022/10/13 10:39:39;;;;;;;;;16.25;15.75;;;;;;;;5099181;27;51176;-43
2022/10/13 10:42:36;;;;;;;;;17.50;15.00;;;;;;;;5100231;27;51135;-43
2022/10/13 10:45:27;;;;;;;;;17.50;13.75;;;;;;;;5081047;27;51428;-46
2022/10/13 10:48:17;;;;;;;;;14.75;13.75;;;;;;;;5085118;27;51279;-45
2022/10/13 10:51:04;;;;;;;;;14.75;13.50;;;;;;;;5090924;27;51168;-45
2022/10/13 10:54:01;;;;;;;;;16.00;15.25;;;;;;;;5090375;27;51156;-44
2022/10/13 10:56:55;;;;;;;;;18.00;13.25;;;;;;;;5077754;27;51118;-44
2022/10/13 10:59:46;;;;;;;;;21.00;13.50;;;;;;;;5077821;27;51528;-44
2022/10/13 11:02:36;;;;;;;;;13.75;13.75;;;;;;;;5094583;27;51058;-46
2022/10/13 11:05:21;;;;;;;;;12.25;10.00;;;;;;;;5079294;27;51155;-44
2022/10/13 11:08:24;;;;;;;;;17.00;14.25;;;;;;;;5078864;27;51076;-45
2022/10/13 11:11:33;;;;;;;;;19.25;14.75;;;;;;;;5094737;27;51332;-44
2022/10/13 11:14:22;;;;;;;;;38.50;31.25;;;;;;;;5099269;27;51076;-44
2022/10/13 11:17:06;;;;;;;;;15.25;14.25;;;;;;;;5093948;27;51339;-44
2022/10/13 11:19:51;;;;;;;;;14.50;14.50;;;;;;;;5088002;27;51092;-43
2022/10/13 11:22:35;;;;;;;;;17.25;13.75;;;;;;;;5078988;27;51466;-45
2022/10/13 11:25:38;;;;;;;;;13.00;11.75;;;;;;;;5087413;27;51204;-43
2022/10/13 11:28:43;;;;;;;;;13.25;9.75;;;;;;;;5082259;27;51071;-42
2022/10/13 11:31:28;;;;;;;;;12.00;11.00;;;;;;;;5082833;27;51226;-45
2022/10/13 11:34:26;;;;;;;;;12.25;11.25;;;;;;;;5082554;27;51097;-44
2022/10/13 11:37:15;;;;;;;;;19.00;16.50;;;;;;;;5082156;27;51059;-44
2022/10/13 11:40:10;;;;;;;;;21.50;16.50;;;;;;;;5082269;27;50965;-46
2022/10/13 11:42:58;;;;;;;;;16.50;14.75;;;;;;;;5083155;27;51114;-47
2022/10/13 11:45:48;;;;;;;;;21.25;15.50;;;;;;;;5086150;27;51199;-45
2022/10/13 11:48:33;;;;;;;;;9.50;9.50;;;;;;;;5087958;27;51255;-44
2022/10/13 11:51:28;;;;;;;;;16.00;11.75;;;;;;;;5081953;27;51183;-45
2022/10/13 11:54:18;;;;;;;;;13.50;10.00;;;;;;;;5081950;27;51376;-45
2022/10/13 11:57:04;;;;;;;;;15.00;13.50;;;;;;;;5090729;27;51169;-43
2022/10/13 11:59:53;;;;;;;;;15.00;12.25;;;;;;;;5100393;27;51120;-44
2022/10/13 12:02:46;;;;;;;;;15.50;12.25;;;;;;;;5090391;27;51471;-46
2022/10/13 12:05:31;;;;;;;;;18.00;14.75;;;;;;;;5082452;27;51183;-44
2022/10/13 12:08:17;;;;;;;;;16.00;14.25;;;;;;;;5081413;27;51172;-46
2022/10/13 12:11:06;;;;;;;;;18.50;14.75;;;;;;;;5081001;27;51146;-47
2022/10/13 12:13:51;;;;;;;;;11.25;10.50;;;;;;;;5080343;27;51177;-45
2022/10/13 12:16:35;;;;;;;;;14.50;11.50;;;;;;;;5081472;27;51075;-46
2022/10/13 12:19:22;;;;;;;;;12.25;12.25;;;;;;;;5083657;27;51581;-45
2022/10/13 12:22:11;;;;;;;;;13.75;12.75;;;;;;;;5076835;27;51252;-43
2022/10/13 12:25:05;;;;;;;;;11.25;10.25;;;;;;;;5096622;27;51030;-45
2022/10/13 12:27:53;;;;;;;;;14.00;11.75;;;;;;;;5086726;27;51315;-43
2022/10/13 12:30:37;;;;;;;;;14.25;10.75;;;;;;;;5092293;27;51027;-44
2022/10/13 12:33:27;;;;;;;;;12.00;10.50;;;;;;;;5082523;27;51147;-47
2022/10/13 12:36:24;;;;;;;;;18.00;12.00;;;;;;;;5089156;27;51155;-44
2022/10/13 12:39:13;;;;;;;;;14.00;12.25;;;;;;;;5081093;27;52118;-45
2022/10/13 12:41:58;;;;;;;;;16.50;13.75;;;;;;;;5081622;27;51026;-45
2022/10/13 12:44:42;;;;;;;;;11.00;6.25;;;;;;;;5090123;27;51514;-47
2022/10/13 12:47:47;;;;;;;;;10.50;9.25;;;;;;;;5080587;27;51114;-42
2022/10/13 12:50:36;;;;;;;;;13.50;11.75;;;;;;;;5082200;27;51217;-46
2022/10/13 12:53:27;;;;;;;;;15.00;9.25;;;;;;;;5087370;27;51387;-46
2022/10/13 12:56:19;;;;;;;;;13.25;8.50;;;;;;;;5092935;27;51114;-45
2022/10/13 12:59:03;;;;;;;;;11.75;10.00;;;;;;;;5065674;27;51199;-46
2022/10/13 13:02:00;;;;;;;;;6.75;5.75;;;;;;;;5080622;27;51122;-48
2022/10/13 13:04:45;;;;;;;;;11.25;8.25;;;;;;;;5099183;27;51514;-44
2022/10/13 13:07:34;;;;;;;;;6.25;2.25;;;;;;;;5098089;27;51204;-47
2022/10/13 13:10:19;;;;;;;;;7.25;4.75;;;;;;;;5099781;27;51247;-44
2022/10/13 13:13:13;;;;;;;;;8.75;5.00;;;;;;;;5079880;27;51192;-45
2022/10/13 13:16:22;;;;;;;;;4.25;4.25;;;;;;;;5082977;27;51597;-44
2022/10/13 13:19:20;;;;;;;;;7.25;4.25;;;;;;;;5087556;27;51189;-48
2022/10/13 13:22:05;;;;;;;;;9.25;5.25;;;;;;;;5095756;27;51202;-45
2022/10/13 13:24:50;;;;;;;;;11.00;10.50;;;;;;;;5087765;27;51097;-46
2022/10/13 13:27:38;;;;;;;;;9.00;9.00;;;;;;;;5098387;27;51065;-48
2022/10/13 13:30:22;;;;;;;;;6.50;5.25;;;;;;;;5085580;27;51144;-46
2022/10/13 13:33:10;;;;;;;;;6.50;5.00;;;;;;;;5088415;27;51130;-44
2022/10/13 13:35:54;;;;;;;;;4.00;4.00;;;;;;;;5088062;27;51168;-48
2022/10/13 13:38:38;;;;;;;;;9.00;5.25;;;;;;;;5080524;27;51168;-48
2022/10/13 13:41:26;;;;;;;;;4.00;3.00;;;;;;;;5092831;27;51069;-49
2022/10/13 13:44:10;;;;;;;;;4.50;3.75;;;;;;;;5100841;27;51433;-44
2022/10/13 13:46:54;;;;;;;;;6.00;4.75;;;;;;;;5096789;27;51383;-43
2022/10/13 13:49:39;;;;;;;;;4.00;2.00;;;;;;;;5100731;27;51386;-44
2022/10/13 14:56:26;;;;;;;;;5.00;4.75;;;;;32.04;100.00;100997.16;4973187;27;1880054;-42
2022/10/13 14:59:11;;;;;;;;;9.00;6.25;;;;;32.12;100.00;101000.06;6196245;23;51294;-39
2022/10/13 15:01:56;;;;;;;;;7.00;5.50;;;;;32.22;100.00;101006.47;6197268;23;51083;-44
2022/10/13 15:04:40;;;;;;;;;7.00;5.00;;;;;32.30;100.00;101006.66;6198348;23;50956;-41
2022/10/13 15:07:25;;;;;;;;;4.50;4.50;;;;;32.38;100.00;101010.59;6197661;23;51460;-42
2022/10/13 15:10:35;;;;;;;;;8.50;6.00;;;;;32.42;100.00;101006.53;6197226;23;51178;-40
2022/10/13 15:13:20;;;;;;;;;10.00;8.50;;;;;32.41;100.00;101004.78;6195670;23;51022;-39
2022/10/13 15:16:05;;;;;;;;;7.50;7.00;;;;;32.40;100.00;101014.06;6194318;23;51397;-39
2022/10/13 15:18:50;;;;;;;;;8.25;6.50;;;;;32.35;100.00;101014.50;6195582;23;51418;-43
2022/10/13 15:21:35;;;;;;;;;8.25;4.25;;;;;32.27;100.00;101020.72;6197653;23;51000;-42
2022/10/13 15:24:20;;;;;;;;;4.00;4.00;;;;;32.17;100.00;101017.00;6196894;23;51119;-39
2022/10/13 15:27:05;;;;;;;;;8.00;4.25;;;;;32.06;100.00;101019.91;6197088;23;51031;-41
2022/10/13 15:29:49;;;;;;;;;5.50;4.75;;;;;32.03;100.00;101018.28;6196422;23;51100;-41
2022/10/13 15:32:34;;;;;;;;;3.25;3.25;;;;;31.94;100.00;101013.59;6195983;23;51084;-44
2022/10/13 15:35:18;;;;;;;;;5.00;4.75;;;;;31.95;100.00;101024.50;6194902;23;51081;-42
2022/10/13 15:38:03;;;;;;;;;4.75;4.75;;;;;31.87;100.00;101038.06;6196857;23;51760;-39
2022/10/13 15:40:48;;;;;;;;;8.25;3.75;;;;;31.81;100.00;101047.72;6195725;23;51416;-41
2022/10/13 15:43:33;;;;;;;;;6.25;3.50;;;;;31.79;100.00;101059.88;6196179;23;51381;-43
2022/10/13 15:46:22;;;;;;;;;5.75;5.75;;;;;31.77;100.00;101062.78;6173617;23;51143;-43
2022/10/13 15:49:08;;;;;;;;;5.50;5.50;;;;;31.69;100.00;101073.59;6195904;23;50972;-40
2022/10/13 15:51:53;;;;;;;;;5.50;4.75;;;;;31.62;100.00;101075.09;6197362;23;51196;-41
2022/10/13 15:54:39;;;;;;;;;5.00;4.25;;;;;31.60;100.00;101083.50;6172787;23;51184;-40
2022/10/13 15:57:25;;;;;;;;;7.75;4.00;;;;;31.58;100.00;101093.75;6165426;23;51070;-42
2022/10/13 16:00:12;;;;;;;;;11.50;7.50;;;;;31.56;100.00;101093.00;6165729;23;51180;-40
2022/10/13 16:02:57;;;;;;;;;8.25;5.00;;;;;31.56;100.00;101103.16;6190237;23;51028;-39
2022/10/13 16:05:43;;;;;;;;;9.50;7.50;;;;;31.50;100.00;101104.56;6188735;23;51708;-41
2022/10/13 16:08:28;;;;;;;;;9.75;9.00;;;;;31.54;100.00;101117.00;6191093;23;50974;-39
2022/10/13 16:11:15;;;;;;;;;9.25;8.75;;;;;31.56;100.00;101112.25;6166001;23;51118;-43
2022/10/13 16:14:00;;;;;;;;;8.25;6.75;;;;;31.58;100.00;101114.91;6188657;23;51060;-42
2022/10/13 16:16:44;;;;;;;;;9.25;6.00;;;;;31.60;100.00;101122.00;6188532;23;51036;-39
2022/10/13 16:19:29;;;;;;;;;11.50;6.25;;;;;31.59;100.00;101120.25;6189730;23;51085;-44
2022/10/13 16:22:14;;;;;;;;;5.75;5.00;;;;;31.57;100.00;101132.41;6189500;23;51041;-41
2022/10/13 16:24:58;;;;;;;;;9.50;6.00;;;;;31.51;100.00;101137.41;6187980;23;51101;-40
2022/10/13 16:27:43;;;;;;;;;9.75;6.50;;;;;31.49;100.00;101141.31;6190136;23;51049;-40
2022/10/13 16:30:29;;;;;;;;;7.75;7.75;;;;;31.42;100.00;101148.34;6165307;23;51262;-41
2022/10/13 16:33:13;;;;;;;;;11.00;8.00;;;;;31.37;100.00;101144.09;6189585;23;51186;-41
2022/10/13 16:36:10;;;;;;;;;7.75;7.75;;;;;31.37;100.00;101157.00;6187240;23;51283;-41
2022/10/13 16:38:54;;;;;;;;;7.00;7.00;;;;;31.32;100.00;101162.88;6190029;23;51400;-40
2022/10/13 16:41:39;;;;;;;;;10.50;9.00;;;;;31.29;100.00;101159.50;6188864;23;51323;-42
2022/10/13 16:44:24;;;;;;;;;9.50;6.75;;;;;31.27;100.00;101156.91;6188628;23;51121;-43
2022/10/13 16:47:08;;;;;;;;;8.75;6.50;;;;;31.26;100.00;101157.91;6188459;23;51132;-41
2022/10/13 16:49:53;;;;;;;;;6.75;6.00;;;;;31.25;100.00;101158.03;6188879;23;51000;-46
2022/10/13 16:52:38;;;;;;;;;7.50;5.75;;;;;31.17;100.00;101154.03;6188795;23;50953;-46
2022/10/13 16:55:22;;;;;;;;;12.75;7.25;;;;;31.17;100.00;101159.53;6188688;23;51353;-42